Time;durP1;ratioP1;P1;durP2;ratioP2;P2;SDS_P1;SDS_P2;PMS_P1;PMS_P2;Temp;Humidity;BMP_temperature;BMP_pressure;BME280_temperature;BME280_humidity;BME280_pressure;Samples;Min_cycle;Max_cycle;Signal;HPM_P1;HPM_P2
2024/01/10 00:01:43;;;;;;;11.13;7.47;;;;;;;;;;5083984;28;20126;-72
2024/01/10 00:04:10;;;;;;;11.20;7.60;;;;;;;;;;5073162;28;20185;-72
2024/01/10 00:06:36;;;;;;;11.77;7.68;;;;;;;;;;5081602;28;20500;-73
2024/01/10 00:09:02;;;;;;;14.38;8.70;;;;;;;;;;5072380;28;20055;-73
2024/01/10 00:11:28;;;;;;;12.68;7.97;;;;;;;;;;5073203;28;20036;-73
2024/01/10 00:13:59;;;;;;;13.57;8.07;;;;;;;;;;5073146;28;20075;-72
2024/01/10 00:16:26;;;;;;;13.40;8.70;;;;;;;;;;5089980;28;20048;-72
2024/01/10 00:18:52;;;;;;;11.43;8.45;;;;;;;;;;5072154;28;20035;-73
2024/01/10 00:21:18;;;;;;;14.55;8.57;;;;;;;;;;5074469;28;20036;-73
2024/01/10 00:23:44;;;;;;;12.73;8.30;;;;;;;;;;5076871;28;20032;-73
2024/01/10 00:26:10;;;;;;;13.23;8.20;;;;;;;;;;5072196;28;20116;-72
2024/01/10 00:28:36;;;;;;;12.73;8.40;;;;;;;;;;5069659;28;20036;-72
2024/01/10 00:31:03;;;;;;;14.00;8.95;;;;;;;;;;5055185;28;20237;-73
2024/01/10 00:33:29;;;;;;;15.10;10.00;;;;;;;;;;5075257;28;20090;-73
2024/01/10 00:35:55;;;;;;;13.00;9.15;;;;;;;;;;5066594;28;20094;-73
2024/01/10 00:38:21;;;;;;;17.08;9.88;;;;;;;;;;5071709;28;20036;-73
2024/01/10 00:40:47;;;;;;;13.50;8.52;;;;;;;;;;5071330;28;20040;-73
2024/01/10 00:43:13;;;;;;;16.65;9.57;;;;;;;;;;5071586;28;20040;-73
2024/01/10 00:45:39;;;;;;;14.57;9.63;;;;;;;;;;5057067;28;20040;-73
2024/01/10 00:48:05;;;;;;;18.10;8.90;;;;;;;;;;5071617;28;20039;-73
2024/01/10 00:50:31;;;;;;;12.85;9.00;;;;;;;;;;5071112;28;20398;-73
2024/01/10 00:52:57;;;;;;;15.45;10.73;;;;;;;;;;5071435;28;20108;-73
2024/01/10 00:55:23;;;;;;;14.38;9.48;;;;;;;;;;5063605;28;20048;-73
2024/01/10 00:57:49;;;;;;;15.45;9.80;;;;;;;;;;5064574;28;20473;-73
2024/01/10 01:00:16;;;;;;;18.25;10.90;;;;;;;;;;5064744;28;20051;-73
2024/01/10 01:02:42;;;;;;;15.48;11.05;;;;;;;;;;5071881;28;20049;-73
2024/01/10 01:05:08;;;;;;;15.88;9.88;;;;;;;;;;5076155;28;20035;-73
2024/01/10 01:07:34;;;;;;;17.75;10.25;;;;;;;;;;5084418;28;20040;-73
2024/01/10 01:10:01;;;;;;;16.75;10.75;;;;;;;;;;5071160;28;20481;-73
2024/01/10 01:12:27;;;;;;;16.73;10.45;;;;;;;;;;5054853;28;20040;-73
2024/01/10 01:14:53;;;;;;;17.10;10.63;;;;;;;;;;5072529;28;20044;-73
2024/01/10 01:17:19;;;;;;;18.15;11.10;;;;;;;;;;5072624;28;20028;-73
2024/01/10 01:19:45;;;;;;;19.70;11.43;;;;;;;;;;5071546;28;20059;-72
2024/01/10 01:22:11;;;;;;;16.70;10.57;;;;;;;;;;5071211;28;20068;-73
2024/01/10 01:24:37;;;;;;;17.40;12.13;;;;;;;;;;5072336;28;20040;-73
2024/01/10 01:27:04;;;;;;;19.10;11.43;;;;;;;;;;5054631;28;20122;-78
2024/01/10 01:29:30;;;;;;;16.60;11.23;;;;;;;;;;5061592;28;20426;-78
2024/01/10 01:31:56;;;;;;;19.27;11.95;;;;;;;;;;5085381;28;20510;-78
2024/01/10 01:34:22;;;;;;;19.00;11.15;;;;;;;;;;5065373;28;20066;-78
2024/01/10 01:36:49;;;;;;;22.60;12.80;;;;;;;;;;5079073;28;20167;-78
2024/01/10 01:39:15;;;;;;;20.67;12.88;;;;;;;;;;5071941;28;20037;-78
2024/01/10 01:41:41;;;;;;;19.95;11.57;;;;;;;;;;5073458;28;20086;-78
2024/01/10 01:44:07;;;;;;;17.35;11.52;;;;;;;;;;5072544;28;20035;-78
2024/01/10 01:46:33;;;;;;;18.98;12.07;;;;;;;;;;5059567;28;20040;-78
2024/01/10 01:49:00;;;;;;;19.52;12.48;;;;;;;;;;5092583;28;20126;-78
2024/01/10 01:51:27;;;;;;;19.90;12.57;;;;;;;;;;5077531;28;20396;-78
2024/01/10 01:53:53;;;;;;;18.85;12.30;;;;;;;;;;5093276;28;20035;-78
2024/01/10 01:56:19;;;;;;;21.98;12.50;;;;;;;;;;5090507;28;20032;-78
2024/01/10 01:58:46;;;;;;;22.23;13.45;;;;;;;;;;5077405;28;20080;-78
2024/01/10 02:01:13;;;;;;;23.65;13.68;;;;;;;;;;5074447;28;20123;-78
2024/01/10 02:03:39;;;;;;;20.83;12.25;;;;;;;;;;5091680;28;20047;-78
2024/01/10 02:06:05;;;;;;;20.23;13.02;;;;;;;;;;5086696;28;20055;-73
2024/01/10 02:08:35;;;;;;;22.77;14.70;;;;;;;;;;5072002;28;20036;-73
2024/01/10 02:11:02;;;;;;;22.40;13.75;;;;;;;;;;5041338;28;20118;-72
2024/01/10 02:13:29;;;;;;;21.92;14.68;;;;;;;;;;5076662;28;20041;-72
2024/01/10 02:15:55;;;;;;;20.20;13.07;;;;;;;;;;5075478;28;20102;-73
2024/01/10 02:18:21;;;;;;;21.80;13.93;;;;;;;;;;5057362;28;20032;-72
2024/01/10 02:20:47;;;;;;;21.58;13.77;;;;;;;;;;5073315;28;20193;-72
2024/01/10 02:23:14;;;;;;;21.85;14.30;;;;;;;;;;5081019;28;20036;-72
2024/01/10 02:25:41;;;;;;;20.52;14.23;;;;;;;;;;5075375;28;20036;-72
2024/01/10 02:28:09;;;;;;;22.73;14.25;;;;;;;;;;5091832;28;20036;-72
2024/01/10 02:30:35;;;;;;;22.00;15.25;;;;;;;;;;5090494;28;20043;-72
2024/01/10 02:33:01;;;;;;;19.65;13.70;;;;;;;;;;5075219;28;20098;-72
2024/01/10 02:35:27;;;;;;;21.38;13.65;;;;;;;;;;5083052;28;20047;-73
2024/01/10 02:37:54;;;;;;;24.02;14.52;;;;;;;;;;5073618;28;20040;-72
2024/01/10 02:40:20;;;;;;;21.27;13.20;;;;;;;;;;5071172;28;20111;-72
2024/01/10 02:42:46;;;;;;;21.45;13.15;;;;;;;;;;5072012;28;20476;-72
2024/01/10 02:45:12;;;;;;;21.40;14.25;;;;;;;;;;5066952;28;20040;-72
2024/01/10 02:47:39;;;;;;;22.27;13.55;;;;;;;;;;5092256;28;20048;-72
2024/01/10 02:50:05;;;;;;;23.48;13.10;;;;;;;;;;5074361;28;20396;-72
2024/01/10 02:52:31;;;;;;;21.88;14.48;;;;;;;;;;5076607;28;20102;-73
2024/01/10 02:54:57;;;;;;;21.42;13.52;;;;;;;;;;5056327;28;20428;-73
2024/01/10 02:57:23;;;;;;;20.98;13.45;;;;;;;;;;5057802;28;20504;-73
2024/01/10 02:59:50;;;;;;;23.80;14.85;;;;;;;;;;5041098;28;20198;-73
2024/01/10 03:02:16;;;;;;;26.20;14.13;;;;;;;;;;5074533;28;20115;-73
2024/01/10 03:04:42;;;;;;;23.40;14.13;;;;;;;;;;5056677;28;20055;-73
2024/01/10 03:07:08;;;;;;;22.10;13.02;;;;;;;;;;5076934;28;20404;-73
2024/01/10 03:09:34;;;;;;;21.70;13.43;;;;;;;;;;5042711;28;20042;-73
2024/01/10 03:12:00;;;;;;;22.90;15.32;;;;;;;;;;5073513;28;20036;-73
2024/01/10 03:14:26;;;;;;;24.02;14.32;;;;;;;;;;5073277;28;20045;-73
2024/01/10 03:16:53;;;;;;;22.13;13.15;;;;;;;;;;5056588;28;20070;-72
2024/01/10 03:19:19;;;;;;;21.50;13.45;;;;;;;;;;5079775;28;20044;-73
2024/01/10 03:21:45;;;;;;;22.15;13.70;;;;;;;;;;5062794;28;20075;-73
2024/01/10 03:24:11;;;;;;;26.55;14.68;;;;;;;;;;5077636;28;20482;-73
2024/01/10 03:26:37;;;;;;;21.35;12.85;;;;;;;;;;5088507;28;20077;-78
2024/01/10 03:29:03;;;;;;;25.08;14.43;;;;;;;;;;5091487;28;20494;-75
2024/01/10 03:31:31;;;;;;;22.05;13.88;;;;;;;;;;5075704;28;20128;-72
2024/01/10 03:33:58;;;;;;;24.05;15.30;;;;;;;;;;5056254;28;20044;-73
2024/01/10 03:36:24;;;;;;;22.55;14.48;;;;;;;;;;5072897;28;20036;-72
2024/01/10 03:38:50;;;;;;;21.95;13.50;;;;;;;;;;5072785;28;20055;-72
2024/01/10 03:41:20;;;;;;;22.40;14.07;;;;;;;;;;5077107;28;20121;-72
2024/01/10 03:43:47;;;;;;;23.63;13.65;;;;;;;;;;5073834;28;20468;-72
2024/01/10 03:46:13;;;;;;;24.42;14.48;;;;;;;;;;5079284;28;20040;-73
2024/01/10 03:48:48;;;;;;;21.98;13.65;;;;;;;;;;5083613;28;20046;-73
2024/01/10 03:51:18;;;;;;;24.67;13.88;;;;;;;;;;5055532;28;20051;-72
2024/01/10 03:53:50;;;;;;;21.00;12.88;;;;;;;;;;5072277;28;20051;-73
2024/01/10 03:56:17;;;;;;;29.52;14.32;;;;;;;;;;5076171;28;20036;-73
2024/01/10 03:58:43;;;;;;;21.63;13.82;;;;;;;;;;5087021;28;20032;-73
2024/01/10 04:01:09;;;;;;;22.85;13.40;;;;;;;;;;5076523;28;20076;-72
2024/01/10 04:03:36;;;;;;;24.10;14.20;;;;;;;;;;5072176;28;20040;-73
2024/01/10 04:06:02;;;;;;;22.45;13.05;;;;;;;;;;5054783;28;20040;-72
2024/01/10 04:08:28;;;;;;;22.35;13.23;;;;;;;;;;5075800;28;20039;-72
2024/01/10 04:10:55;;;;;;;21.65;12.73;;;;;;;;;;5060772;28;20037;-73
2024/01/10 04:13:21;;;;;;;20.75;12.77;;;;;;;;;;5072345;28;20039;-72
2024/01/10 04:15:47;;;;;;;20.35;13.20;;;;;;;;;;5088615;28;20473;-73
2024/01/10 04:18:13;;;;;;;20.10;12.55;;;;;;;;;;5056401;28;20037;-73
2024/01/10 04:20:39;;;;;;;21.48;11.90;;;;;;;;;;5087976;28;20039;-73
2024/01/10 04:23:05;;;;;;;19.40;11.73;;;;;;;;;;5073705;28;20079;-73
2024/01/10 04:25:31;;;;;;;18.60;11.60;;;;;;;;;;5066189;28;20036;-72
2024/01/10 04:27:57;;;;;;;21.85;12.05;;;;;;;;;;5057730;28;20082;-72
2024/01/10 04:30:24;;;;;;;20.70;12.35;;;;;;;;;;5055229;28;20032;-73
2024/01/10 04:32:50;;;;;;;18.50;11.65;;;;;;;;;;5076040;28;20040;-73
2024/01/10 04:35:16;;;;;;;19.33;12.38;;;;;;;;;;5071616;28;20040;-73
2024/01/10 04:37:42;;;;;;;18.48;11.10;;;;;;;;;;5072139;28;20040;-77
2024/01/10 04:40:08;;;;;;;19.25;11.48;;;;;;;;;;5084625;28;20042;-77
2024/01/10 04:42:35;;;;;;;20.50;12.05;;;;;;;;;;5072442;28;20116;-78
2024/01/10 04:45:01;;;;;;;17.75;11.63;;;;;;;;;;5071933;28;20040;-77
2024/01/10 04:47:27;;;;;;;18.17;11.38;;;;;;;;;;5073356;28;20041;-77
2024/01/10 04:49:53;;;;;;;19.50;12.00;;;;;;;;;;5074488;28;20036;-77
2024/01/10 04:52:19;;;;;;;22.17;11.77;;;;;;;;;;5056035;28;20036;-78
2024/01/10 04:54:45;;;;;;;19.10;11.43;;;;;;;;;;5043366;28;20045;-78
2024/01/10 04:57:11;;;;;;;15.80;11.30;;;;;;;;;;5080877;28;20120;-77
2024/01/10 04:59:37;;;;;;;18.95;11.45;;;;;;;;;;5071276;28;20408;-77
2024/01/10 05:02:03;;;;;;;20.33;11.65;;;;;;;;;;5057765;28;20047;-77
2024/01/10 05:04:29;;;;;;;18.58;11.68;;;;;;;;;;5071325;28;20068;-79
2024/01/10 05:06:55;;;;;;;19.48;11.85;;;;;;;;;;5054724;28;20036;-77
2024/01/10 05:09:21;;;;;;;17.95;11.75;;;;;;;;;;5053696;28;20038;-77
2024/01/10 05:11:50;;;;;;;17.55;10.63;;;;;;;;;;5054428;28;20037;-77
2024/01/10 05:14:16;;;;;;;18.85;11.95;;;;;;;;;;5054810;28;20333;-77
2024/01/10 05:16:43;;;;;;;17.65;11.45;;;;;;;;;;5054604;28;20106;-76
2024/01/10 05:19:09;;;;;;;20.10;12.20;;;;;;;;;;5074560;28;20043;-77
2024/01/10 05:21:35;;;;;;;18.35;11.77;;;;;;;;;;5075315;28;20045;-77
2024/01/10 05:24:01;;;;;;;19.23;12.18;;;;;;;;;;5075104;28;20036;-77
2024/01/10 05:26:27;;;;;;;21.42;11.63;;;;;;;;;;5075342;28;20388;-77
2024/01/10 05:28:53;;;;;;;19.80;11.40;;;;;;;;;;5075170;28;20037;-77
2024/01/10 05:31:19;;;;;;;18.17;11.30;;;;;;;;;;5058434;28;20542;-77
2024/01/10 05:33:45;;;;;;;25.45;13.05;;;;;;;;;;5057697;28;20488;-72
2024/01/10 05:36:11;;;;;;;18.60;11.88;;;;;;;;;;5074893;28;20460;-72
2024/01/10 05:38:38;;;;;;;18.65;12.35;;;;;;;;;;5058334;28;20036;-73
2024/01/10 05:41:04;;;;;;;22.48;12.15;;;;;;;;;;5074655;28;20040;-73
2024/01/10 05:43:31;;;;;;;21.00;12.77;;;;;;;;;;5058073;28;20044;-73
2024/01/10 05:45:58;;;;;;;19.05;13.20;;;;;;;;;;5057991;28;20087;-73
2024/01/10 05:48:24;;;;;;;18.17;11.95;;;;;;;;;;5074567;28;20101;-72
2024/01/10 05:50:50;;;;;;;18.23;12.02;;;;;;;;;;5092978;28;20123;-73
2024/01/10 05:53:17;;;;;;;18.65;11.70;;;;;;;;;;5095207;28;20434;-73
2024/01/10 05:55:43;;;;;;;16.77;11.57;;;;;;;;;;5094817;28;20047;-72
2024/01/10 05:58:10;;;;;;;22.52;12.35;;;;;;;;;;5069691;28;20050;-73
2024/01/10 06:00:36;;;;;;;18.80;11.57;;;;;;;;;;5075217;28;20052;-73
2024/01/10 06:03:02;;;;;;;21.65;12.80;;;;;;;;;;5079745;28;20393;-75
2024/01/10 06:05:28;;;;;;;26.88;13.35;;;;;;;;;;5094998;28;20055;-74
2024/01/10 06:07:54;;;;;;;18.35;12.38;;;;;;;;;;5087802;28;20105;-73
2024/01/10 06:10:20;;;;;;;22.45;13.00;;;;;;;;;;5072848;28;20045;-73
2024/01/10 06:12:47;;;;;;;21.88;13.25;;;;;;;;;;5073694;28;20036;-74
2024/01/10 06:15:13;;;;;;;21.52;12.57;;;;;;;;;;5056937;28;20037;-73
2024/01/10 06:17:39;;;;;;;21.02;12.55;;;;;;;;;;5057282;28;20157;-73
2024/01/10 06:20:06;;;;;;;19.83;13.15;;;;;;;;;;5076066;28;20435;-73
2024/01/10 06:22:32;;;;;;;22.20;13.35;;;;;;;;;;5073835;28;20091;-74
2024/01/10 06:24:59;;;;;;;19.42;12.55;;;;;;;;;;5073540;28;20040;-74
2024/01/10 06:27:25;;;;;;;20.30;12.48;;;;;;;;;;5073629;28;20036;-74
2024/01/10 06:29:51;;;;;;;21.20;13.25;;;;;;;;;;5073378;28;20079;-72
2024/01/10 06:32:17;;;;;;;25.25;14.50;;;;;;;;;;5073341;28;20055;-72
2024/01/10 06:34:43;;;;;;;22.00;13.98;;;;;;;;;;5056819;28;20037;-72
2024/01/10 06:37:09;;;;;;;19.55;12.68;;;;;;;;;;5073127;28;20033;-72
2024/01/10 06:39:35;;;;;;;21.73;13.35;;;;;;;;;;5073632;28;20060;-72
2024/01/10 06:42:03;;;;;;;21.05;13.70;;;;;;;;;;5056830;28;20047;-72
2024/01/10 06:44:30;;;;;;;18.48;12.55;;;;;;;;;;5056425;28;20104;-73
2024/01/10 06:46:56;;;;;;;23.83;14.10;;;;;;;;;;5056726;28;20040;-73
2024/01/10 06:49:22;;;;;;;22.80;14.48;;;;;;;;;;5073345;28;20047;-73
2024/01/10 06:51:48;;;;;;;20.90;13.45;;;;;;;;;;5073575;28;20044;-72
2024/01/10 06:54:14;;;;;;;22.00;13.57;;;;;;;;;;5071632;28;20472;-72
2024/01/10 06:56:41;;;;;;;23.42;14.18;;;;;;;;;;5064253;28;20051;-73
2024/01/10 06:59:07;;;;;;;25.50;14.82;;;;;;;;;;5076448;28;20048;-73
2024/01/10 07:01:33;;;;;;;27.05;15.40;;;;;;;;;;5073301;28;20083;-79
2024/01/10 07:03:59;;;;;;;25.70;15.55;;;;;;;;;;5074064;28;20032;-78
2024/01/10 07:06:25;;;;;;;22.67;15.20;;;;;;;;;;5060273;28;20033;-78
2024/01/10 07:08:51;;;;;;;23.05;14.85;;;;;;;;;;5076385;28;20036;-78
2024/01/10 07:11:19;;;;;;;22.58;14.48;;;;;;;;;;5056496;28;20135;-78
2024/01/10 07:13:45;;;;;;;22.92;14.57;;;;;;;;;;5074330;28;20051;-78
2024/01/10 07:16:11;;;;;;;24.08;14.77;;;;;;;;;;5056184;28;20036;-78
2024/01/10 07:18:40;;;;;;;24.40;14.90;;;;;;;;;;5063146;28;20556;-78
2024/01/10 07:21:06;;;;;;;21.20;14.02;;;;;;;;;;5080957;28;20099;-78
2024/01/10 07:23:33;;;;;;;22.17;13.93;;;;;;;;;;5058777;28;20060;-79
2024/01/10 07:26:00;;;;;;;20.98;14.18;;;;;;;;;;5074401;28;20040;-79
2024/01/10 07:28:26;;;;;;;23.85;13.57;;;;;;;;;;5063773;28;20106;-78
2024/01/10 07:30:52;;;;;;;22.55;13.45;;;;;;;;;;5055662;28;20036;-78
2024/01/10 07:33:18;;;;;;;24.50;14.50;;;;;;;;;;5072721;28;20043;-78
2024/01/10 07:35:44;;;;;;;20.73;14.07;;;;;;;;;;5075960;28;20051;-73
2024/01/10 07:38:10;;;;;;;23.42;13.93;;;;;;;;;;5065570;28;20036;-73
2024/01/10 07:40:36;;;;;;;24.08;14.68;;;;;;;;;;5057071;28;20040;-73
2024/01/10 07:43:02;;;;;;;20.20;14.00;;;;;;;;;;5055767;28;20119;-73
2024/01/10 07:45:29;;;;;;;22.02;14.45;;;;;;;;;;5077004;28;20036;-73
2024/01/10 07:47:55;;;;;;;22.52;13.98;;;;;;;;;;5086646;28;20051;-73
2024/01/10 07:50:23;;;;;;;20.98;13.80;;;;;;;;;;5072529;28;20101;-73
2024/01/10 07:52:50;;;;;;;22.33;14.57;;;;;;;;;;5072236;28;20091;-72
2024/01/10 07:55:16;;;;;;;19.85;13.23;;;;;;;;;;5074959;28;20040;-74
2024/01/10 07:57:45;;;;;;;20.38;14.82;;;;;;;;;;5072398;28;20048;-73
2024/01/10 08:00:11;;;;;;;20.58;13.25;;;;;;;;;;5055465;28;20109;-75
2024/01/10 08:02:40;;;;;;;22.55;13.95;;;;;;;;;;5075370;28;20043;-75
2024/01/10 08:05:09;;;;;;;24.05;14.65;;;;;;;;;;5062881;28;20040;-75
2024/01/10 08:07:39;;;;;;;25.20;14.30;;;;;;;;;;5066796;28;20032;-80
2024/01/10 08:10:09;;;;;;;21.08;13.48;;;;;;;;;;5097034;28;20377;-80
2024/01/10 08:12:35;;;;;;;21.05;13.40;;;;;;;;;;5072331;28;20040;-79
2024/01/10 08:15:01;;;;;;;23.08;13.52;;;;;;;;;;5071928;28;20094;-79
2024/01/10 08:17:28;;;;;;;23.35;13.52;;;;;;;;;;5071483;28;20079;-79
2024/01/10 08:19:57;;;;;;;23.67;14.30;;;;;;;;;;5064175;28;20036;-80
2024/01/10 08:22:23;;;;;;;24.08;13.65;;;;;;;;;;5059578;28;20549;-79
2024/01/10 08:24:49;;;;;;;25.75;14.35;;;;;;;;;;5060380;28;20029;-80
2024/01/10 08:27:17;;;;;;;26.60;14.13;;;;;;;;;;5061303;28;20032;-80
2024/01/10 08:29:44;;;;;;;20.85;12.85;;;;;;;;;;5056426;28;20037;-80
2024/01/10 08:32:10;;;;;;;19.48;11.55;;;;;;;;;;5071700;28;20373;-79
2024/01/10 08:34:36;;;;;;;20.52;13.23;;;;;;;;;;5071767;28;20032;-80
2024/01/10 08:37:03;;;;;;;23.05;13.00;;;;;;;;;;5074836;28;20063;-79
2024/01/10 08:39:30;;;;;;;21.27;13.10;;;;;;;;;;5061051;28;20401;-81
2024/01/10 08:41:57;;;;;;;18.23;11.43;;;;;;;;;;5070969;28;20041;-80
2024/01/10 08:44:26;;;;;;;20.77;12.50;;;;;;;;;;5070900;28;20033;-80
2024/01/10 08:46:52;;;;;;;19.35;11.55;;;;;;;;;;5075545;28;20052;-78
2024/01/10 08:49:19;;;;;;;17.90;11.40;;;;;;;;;;5058953;28;20048;-79
2024/01/10 08:51:46;;;;;;;20.45;11.70;;;;;;;;;;5073597;28;20398;-79
2024/01/10 08:54:19;;;;;;;20.90;11.65;;;;;;;;;;5053458;28;20089;-79
2024/01/10 08:56:45;;;;;;;17.27;10.93;;;;;;;;;;5071579;28;20101;-79
2024/01/10 08:59:12;;;;;;;17.85;11.73;;;;;;;;;;5054909;28;20440;-79
2024/01/10 09:01:41;;;;;;;18.60;11.40;;;;;;;;;;5071937;28;20044;-79
2024/01/10 09:04:08;;;;;;;17.63;11.73;;;;;;;;;;5075398;28;20041;-78
2024/01/10 09:06:35;;;;;;;21.25;11.07;;;;;;;;;;5057189;28;20063;-79
2024/01/10 09:09:02;;;;;;;21.20;10.85;;;;;;;;;;5074087;28;20040;-78
2024/01/10 09:11:28;;;;;;;19.08;10.25;;;;;;;;;;5076475;28;20045;-79
2024/01/10 09:13:54;;;;;;;18.77;11.02;;;;;;;;;;5073644;28;20492;-79
2024/01/10 09:16:20;;;;;;;17.73;9.85;;;;;;;;;;5071543;28;20048;-79
2024/01/10 09:18:48;;;;;;;16.80;10.00;;;;;;;;;;5055045;28;20033;-78
2024/01/10 09:21:15;;;;;;;15.27;9.57;;;;;;;;;;5071411;28;20051;-78
2024/01/10 09:23:41;;;;;;;15.52;9.68;;;;;;;;;;5071579;28;20062;-79
2024/01/10 09:26:08;;;;;;;15.02;9.48;;;;;;;;;;5072188;28;20472;-81
2024/01/10 09:28:34;;;;;;;14.23;8.82;;;;;;;;;;5071788;28;20052;-80
2024/01/10 09:31:01;;;;;;;14.73;9.32;;;;;;;;;;5071467;28;20040;-81
2024/01/10 09:33:27;;;;;;;15.43;9.32;;;;;;;;;;5054682;28;20082;-81
2024/01/10 09:35:53;;;;;;;18.48;10.05;;;;;;;;;;5054647;28;20127;-81
2024/01/10 09:38:19;;;;;;;15.93;9.05;;;;;;;;;;5071403;28;20098;-81
2024/01/10 09:40:45;;;;;;;17.52;9.35;;;;;;;;;;5071995;28;20098;-80
2024/01/10 09:43:11;;;;;;;14.80;8.82;;;;;;;;;;5054648;28;20068;-80
2024/01/10 09:45:41;;;;;;;16.55;9.65;;;;;;;;;;5071562;28;20442;-80
2024/01/10 09:48:07;;;;;;;15.73;8.63;;;;;;;;;;5071239;28;20091;-74
2024/01/10 09:50:33;;;;;;;14.40;8.40;;;;;;;;;;5054628;28;20040;-73
2024/01/10 09:53:06;;;;;;;15.60;8.95;;;;;;;;;;5054046;28;20043;-74
2024/01/10 09:55:35;;;;;;;14.35;8.13;;;;;;;;;;5061675;28;20201;-73
2024/01/10 09:58:03;;;;;;;15.70;8.27;;;;;;;;;;5070961;28;20037;-74
2024/01/10 10:00:30;;;;;;;14.68;8.55;;;;;;;;;;5070820;28;20456;-81
2024/01/10 10:02:57;;;;;;;14.15;8.02;;;;;;;;;;5071202;28;20104;-81
2024/01/10 10:05:23;;;;;;;15.45;9.38;;;;;;;;;;5090795;28;20044;-81
2024/01/10 10:07:50;;;;;;;18.42;8.55;;;;;;;;;;5074446;28;20072;-78
2024/01/10 10:10:17;;;;;;;17.65;8.15;;;;;;;;;;5057770;28;20044;-74
2024/01/10 10:12:47;;;;;;;13.45;8.32;;;;;;;;;;5074469;28;20123;-74
2024/01/10 10:15:14;;;;;;;16.25;8.32;;;;;;;;;;5074133;28;20048;-74
2024/01/10 10:17:46;;;;;;;15.88;8.38;;;;;;;;;;5074140;28;20090;-72
2024/01/10 10:20:14;;;;;;;16.73;9.03;;;;;;;;;;5074083;28;20419;-71
2024/01/10 10:22:42;;;;;;;15.52;7.18;;;;;;;;;;5073911;28;20496;-80
2024/01/10 10:25:09;;;;;;;14.88;7.13;;;;;;;;;;5073987;28;20087;-72
2024/01/10 10:27:37;;;;;;;13.18;7.03;;;;;;;;;;5074055;28;20124;-73
2024/01/10 10:30:04;;;;;;;15.93;7.72;;;;;;;;;;5073978;28;20080;-72
2024/01/10 10:32:30;;;;;;;16.02;7.10;;;;;;;;;;5072871;28;20037;-72
2024/01/10 10:34:57;;;;;;;13.70;6.93;;;;;;;;;;5057326;28;20041;-72
2024/01/10 10:37:23;;;;;;;16.70;7.72;;;;;;;;;;5073796;28;20037;-72
2024/01/10 10:39:49;;;;;;;14.50;7.28;;;;;;;;;;5068781;28;20036;-71
2024/01/10 10:42:15;;;;;;;15.23;7.00;;;;;;;;;;5057031;28;20073;-72
2024/01/10 10:44:43;;;;;;;13.45;6.90;;;;;;;;;;5075654;28;20042;-72
2024/01/10 10:47:11;;;;;;;14.98;6.85;;;;;;;;;;5073477;28;20038;-72
2024/01/10 10:49:42;;;;;;;15.15;7.53;;;;;;;;;;5063405;28;20037;-72
2024/01/10 10:52:08;;;;;;;13.10;6.53;;;;;;;;;;5076002;28;20082;-73
2024/01/10 10:54:35;;;;;;;16.48;7.07;;;;;;;;;;5076773;28;20037;-72
2024/01/10 10:57:02;;;;;;;14.32;6.85;;;;;;;;;;5056554;28;20043;-73
2024/01/10 10:59:29;;;;;;;17.17;7.00;;;;;;;;;;5056236;28;20052;-73
2024/01/10 11:01:56;;;;;;;13.00;6.45;;;;;;;;;;5070881;28;20117;-73
2024/01/10 11:04:22;;;;;;;13.65;7.60;;;;;;;;;;5078706;28;20063;-73
2024/01/10 11:06:49;;;;;;;12.40;5.97;;;;;;;;;;5077212;28;20402;-73
2024/01/10 11:09:18;;;;;;;17.58;8.25;;;;;;;;;;5096053;28;20050;-73
2024/01/10 11:12:03;;;;;;;16.98;7.28;;;;;;;;;;5064366;28;20097;-73
2024/01/10 11:14:29;;;;;;;14.80;7.03;;;;;;;;;;5080263;28;20469;-73
2024/01/10 11:17:14;;;;;;;12.30;6.28;;;;;;;;;;5075891;28;20050;-73
2024/01/10 11:19:59;;;;;;;14.40;6.28;;;;;;;;;;5073758;28;20041;-73
2024/01/10 11:22:44;;;;;;;13.88;6.78;;;;;;;;;;5069740;28;20124;-73
2024/01/10 11:25:10;;;;;;;13.05;6.60;;;;;;;;;;5073443;28;20048;-74
2024/01/10 11:27:37;;;;;;;15.55;6.70;;;;;;;;;;5039646;28;20067;-74
2024/01/10 11:30:05;;;;;;;14.70;6.88;;;;;;;;;;5056819;28;20404;-73
2024/01/10 11:32:35;;;;;;;16.52;6.88;;;;;;;;;;5059298;28;20111;-73
2024/01/10 11:35:07;;;;;;;15.77;6.07;;;;;;;;;;5072610;28;20044;-81
2024/01/10 11:38:00;;;;;;;15.20;6.30;;;;;;;;;;5073275;28;20043;-80
2024/01/10 11:40:45;;;;;;;13.18;6.70;;;0.40;99.90;;;;;;5072258;28;20476;-80
2024/01/10 11:43:14;;;;;;;11.88;6.43;;;;;;;;;;5055663;28;20476;-79
2024/01/10 11:45:51;;;;;;;13.82;5.82;;;;;;;;;;5073948;28;20068;-80
2024/01/10 11:48:18;;;;;;;16.63;7.55;;;;;;;;;;5072592;28;20507;-80
2024/01/10 11:50:44;;;;;;;13.27;6.60;;;;;;;;;;5060311;28;20048;-80
2024/01/10 11:53:11;;;;;;;12.82;6.55;;;;;;;;;;5072143;28;20036;-80
2024/01/10 11:56:03;;;;;;;12.75;6.18;;;;;;;;;;5055229;28;20131;-80
2024/01/10 11:58:30;;;;;;;15.32;6.35;;;;;;;;;;5070627;28;20048;-81
2024/01/10 12:00:56;;;;;;;11.57;6.82;;;;;;;;;;5079456;28;20104;-81
2024/01/10 12:03:22;;;;;;;15.30;7.60;;;;;;;;;;5074964;28;20051;-73
2024/01/10 12:05:49;;;;;;;12.95;5.90;;;;;;;;;;5075322;28;20451;-73
2024/01/10 12:08:15;;;;;;;14.55;6.53;;;;;;;;;;5076178;28;20047;-73
2024/01/10 12:10:41;;;;;;;11.57;5.60;;;;;;;;;;5082647;28;20561;-73
2024/01/10 12:13:07;;;;;;;14.95;6.95;;;;;;;;;;5083467;28;20131;-73
2024/01/10 12:15:34;;;;;;;15.80;6.70;;;;;;;;;;5055723;28;20045;-81
2024/01/10 12:18:00;;;;;;;14.52;6.38;;;;;;;;;;5078289;28;20115;-82
2024/01/10 12:20:28;;;;;;;12.70;6.45;;;;;;;;;;5067291;28;20040;-83
2024/01/10 12:22:55;;;;;;;18.27;7.63;;;;;;;;;;5056949;28;20068;-80
2024/01/10 12:25:21;;;;;;;15.07;6.43;;;;;;;;;;5080486;28;20093;-74
2024/01/10 12:27:47;;;;;;;12.80;6.57;;;;;;;;;;5059615;28;20067;-80
2024/01/10 12:30:13;;;;;;;12.70;6.18;;;;;;;;;;5078975;28;20048;-81
2024/01/10 12:32:39;;;;;;;13.82;6.75;;;;;;;;;;5067551;28;20040;-80
2024/01/10 12:35:06;;;;;;;11.13;6.05;;;;;;;;;;5064826;28;20044;-81
2024/01/10 12:37:32;;;;;;;12.95;6.18;;;;;;;;;;5074156;28;20051;-81
2024/01/10 12:39:58;;;;;;;12.52;6.53;;;;;;;;;;5092084;28;20089;-81
2024/01/10 12:42:25;;;;;;;12.10;6.30;;;;;;;;;;5092152;28;20043;-83
2024/01/10 12:44:51;;;;;;;12.43;6.30;;;;;;;;;;5078604;28;20036;-82
2024/01/10 12:47:21;;;;;;;11.68;6.05;;;;;;;;;;5071529;28;20470;-82
2024/01/10 12:49:47;;;;;;;12.70;6.43;;;;;;;;;;5067256;28;20546;-82
2024/01/10 12:52:13;;;;;;;11.70;6.32;;;;;;;;;;5108745;28;20040;-82
2024/01/10 12:54:40;;;;;;;15.45;6.53;;;;;;;;;;5108687;28;20135;-81
2024/01/10 12:57:09;;;;;;;12.15;6.40;;;;;;;;;;5091615;28;20040;-81
2024/01/10 12:59:35;;;;;;;10.93;6.75;;;;;;;;;;5080952;28;20049;-81
2024/01/10 13:02:02;;;;;;;10.65;5.97;;;;;;;;;;5071554;28;20473;-82
2024/01/10 13:04:28;;;;;;;12.02;6.35;;;;;;;;;;5054812;28;20036;-82
2024/01/10 13:06:54;;;;;;;13.85;6.47;;;;;;;;;;5071255;28;20101;-81
2024/01/10 13:09:20;;;;;;;14.18;6.63;;;;;;;;;;5054635;28;20037;-81
2024/01/10 13:11:46;;;;;;;12.15;6.47;;;;;;;;;;5065673;28;20048;-80
2024/01/10 13:14:12;;;;;;;14.52;7.28;;;;;;;;;;5074031;28;20170;-81
2024/01/10 13:16:39;;;;;;;12.98;6.32;;;;;;;;;;5067515;28;20055;-81
2024/01/10 13:19:05;;;;;;;14.38;6.85;;;;;;;;;;5074608;28;20514;-81
2024/01/10 13:21:31;;;;;;;13.98;6.35;;;;;;;;;;5063035;28;20043;-79
2024/01/10 13:23:57;;;;;;;11.05;6.03;;;;;;;;;;5080106;28;20043;-80
2024/01/10 13:26:23;;;;;;;13.27;6.45;;;;;;;;;;5073969;28;20047;-79
2024/01/10 13:28:50;;;;;;;15.05;7.53;;;;;;;;;;5079299;28;20465;-80
2024/01/10 13:31:16;;;;;;;13.30;7.15;;;;;;;;;;5047727;28;20392;-80
2024/01/10 13:33:43;;;;;;;12.35;6.50;;;;;;;;;;5079116;28;20464;-80
2024/01/10 13:36:09;;;;;;;14.52;7.00;;;;;;;;;;5058060;28;20492;-81
2024/01/10 13:38:35;;;;;;;13.38;6.70;;;;;;;;;;5088811;28;20040;-80
2024/01/10 13:41:01;;;;;;;14.57;6.82;;;;;;;;;;5081778;28;20036;-81
2024/01/10 13:43:28;;;;;;;13.10;6.60;;;;;;;;;;5078262;28;20036;-74
2024/01/10 13:45:54;;;;;;;13.35;5.95;;;;;;;;;;5059276;28;20472;-72
2024/01/10 13:48:20;;;;;;;13.20;7.18;;;;;;;;;;5076542;28;20086;-73
2024/01/10 13:50:46;;;;;;;12.88;6.38;;;;;;;;;;5057316;28;20058;-74
2024/01/10 13:53:12;;;;;;;12.68;6.60;;;;;;;;;;5057271;28;20082;-74
2024/01/10 13:55:39;;;;;;;11.98;6.30;;;;;;;;;;5078270;28;20148;-74
2024/01/10 13:58:05;;;;;;;11.80;6.68;;;;;;;;;;5112063;28;20036;-75
2024/01/10 14:00:31;;;;;;;10.60;5.72;;;;;;;;;;5100106;28;20128;-76
2024/01/10 14:02:59;;;;;;;12.32;6.80;;;;;;;;;;5063943;28;20082;-75
2024/01/10 14:05:28;;;;;;;13.27;6.28;;;;;;;;;;5057365;28;20446;-75
2024/01/10 14:07:54;;;;;;;13.63;6.75;;;;;;;;;;5058873;28;20230;-76
2024/01/10 14:10:21;;;;;;;11.68;6.55;;;;;;;;;;5061325;28;20123;-77
2024/01/10 14:12:47;;;;;;;10.82;6.25;;;;;;;;;;5057836;28;20532;-77
2024/01/10 14:15:13;;;;;;;10.70;6.05;;;;;;;;;;5061812;28;20100;-77
2024/01/10 14:17:41;;;;;;;10.77;6.20;;;;;;;;;;5078858;28;20086;-76
2024/01/10 14:20:08;;;;;;;12.10;5.35;;;;;;;;;;5080805;28;20032;-77